createdAt,value
2023-03-02T00:02:40.876Z,20.37
2023-03-02T00:05:42.903Z,22.27
2023-03-02T00:08:44.856Z,19.45
2023-03-02T00:11:46.919Z,20.20
2023-03-02T00:14:49.057Z,22.77
2023-03-02T00:17:51.355Z,27.33
2023-03-02T00:20:53.739Z,25.20
2023-03-02T00:23:55.763Z,20.63
2023-03-02T00:26:58.269Z,25.00
2023-03-02T00:30:00.757Z,23.48
2023-03-02T00:33:03.215Z,22.10
2023-03-02T00:36:05.433Z,25.95
2023-03-02T00:39:07.517Z,26.52
2023-03-02T00:42:09.887Z,26.60
2023-03-02T00:45:12.517Z,25.80
2023-03-02T00:48:15.035Z,24.92
2023-03-02T00:51:17.815Z,22.80
2023-03-02T00:54:19.846Z,23.35
2023-03-02T00:57:21.823Z,20.13
2023-03-02T01:00:24.204Z,22.45
2023-03-02T01:03:26.802Z,23.20
2023-03-02T01:06:29.374Z,25.80
2023-03-02T01:09:31.557Z,23.25
2023-03-02T01:12:33.850Z,28.67
2023-03-02T01:15:36.629Z,27.70
2023-03-02T01:18:39.129Z,27.02
2023-03-02T01:21:41.742Z,29.23
2023-03-02T01:24:44.273Z,31.15
2023-03-02T01:27:46.495Z,28.80
2023-03-02T01:30:49.092Z,29.58
2023-03-02T01:33:51.242Z,31.17
2023-03-02T01:36:53.767Z,31.33
2023-03-02T01:39:56.213Z,26.58
2023-03-02T01:42:58.478Z,32.43
2023-03-02T01:46:13.441Z,28.20
2023-03-02T01:49:34.630Z,28.23
2023-03-02T01:52:38.659Z,27.50
2023-03-02T01:55:44.186Z,27.42
2023-03-02T01:58:46.745Z,29.85
2023-03-02T02:01:50.698Z,24.98
2023-03-02T02:04:52.676Z,33.67
2023-03-02T02:07:55.147Z,34.67
2023-03-02T02:10:57.309Z,27.73
2023-03-02T02:13:59.833Z,42.83
2023-03-02T02:17:02.290Z,44.17
2023-03-02T02:20:07.510Z,41.47
2023-03-02T02:23:28.199Z,35.80
2023-03-02T02:26:41.823Z,31.95
2023-03-02T02:29:47.426Z,32.53
2023-03-02T02:32:49.670Z,36.45
2023-03-02T02:35:52.718Z,38.10
2023-03-02T02:38:55.428Z,26.45
2023-03-02T02:41:59.020Z,29.45
2023-03-02T02:45:04.527Z,26.57
2023-03-02T02:48:09.068Z,30.00
2023-03-02T02:51:12.136Z,28.42
2023-03-02T02:54:15.358Z,24.75
2023-03-02T02:57:17.944Z,24.52
2023-03-02T03:00:21.289Z,29.33
2023-03-02T03:03:41.391Z,23.60
2023-03-02T03:06:51.409Z,25.80
2023-03-02T03:10:14.443Z,24.75
2023-03-02T03:13:17.087Z,26.98
2023-03-02T03:16:19.928Z,23.20
2023-03-02T03:19:25.117Z,28.50
2023-03-02T03:22:28.101Z,20.83
2023-03-02T03:25:32.126Z,23.02
2023-03-02T03:28:35.807Z,20.20
2023-03-02T03:31:39.346Z,23.23
2023-03-02T03:34:41.776Z,25.55
2023-03-02T03:38:06.263Z,61.87
2023-03-02T03:41:08.515Z,202.88
2023-03-02T03:44:10.958Z,88.07
2023-03-02T03:47:16.202Z,30.70
2023-03-02T03:50:19.283Z,24.77
2023-03-02T03:53:21.797Z,18.45
2023-03-02T03:56:24.405Z,69.13
2023-03-02T03:59:27.161Z,54.28
2023-03-02T04:02:32.769Z,52.78
2023-03-02T04:05:35.129Z,40.88
2023-03-02T04:08:38.278Z,28.10
2023-03-02T04:11:40.852Z,25.65
2023-03-02T04:14:43.234Z,19.38
2023-03-02T04:17:46.840Z,22.00
2023-03-02T04:20:51.521Z,21.85
2023-03-02T04:23:53.757Z,24.17
2023-03-02T04:26:57.922Z,20.60
2023-03-02T04:30:00.481Z,21.58
2023-03-02T04:33:03.254Z,20.80
2023-03-02T04:36:07.414Z,19.58
2023-03-02T04:39:10.884Z,19.73
2023-03-02T04:42:12.914Z,20.25
2023-03-02T04:45:14.909Z,22.05
2023-03-02T04:48:17.408Z,20.20
2023-03-02T04:51:24.232Z,17.15
2023-03-02T04:54:26.367Z,15.45
2023-03-02T04:57:28.412Z,19.70
2023-03-02T05:00:34.141Z,136.45
2023-03-02T05:03:36.207Z,28.00
2023-03-02T05:06:38.299Z,15.00
2023-03-02T05:09:40.243Z,17.17
2023-03-02T05:12:55.003Z,16.20
2023-03-02T05:15:58.497Z,28.13
2023-03-02T05:19:00.768Z,17.83
2023-03-02T05:22:02.903Z,23.85
2023-03-02T05:25:05.424Z,28.25
2023-03-02T05:28:07.508Z,25.08
2023-03-02T05:31:09.836Z,21.40
2023-03-02T05:34:13.358Z,21.20
2023-03-02T05:37:15.752Z,19.38
2023-03-02T05:40:19.125Z,19.73
2023-03-02T05:43:21.783Z,20.27
2023-03-02T05:46:24.253Z,23.25
2023-03-02T05:49:26.514Z,19.47
2023-03-02T05:52:28.942Z,28.08
2023-03-02T05:55:31.004Z,28.98
2023-03-02T05:58:33.465Z,25.60
2023-03-02T06:01:36.872Z,26.15
2023-03-02T06:04:43.188Z,31.15
2023-03-02T06:07:45.451Z,354.77
2023-03-02T06:10:47.820Z,60.30
2023-03-02T06:13:56.809Z,72.28
2023-03-02T06:16:58.883Z,37.55
2023-03-02T06:20:01.126Z,40.53
2023-03-02T06:23:03.937Z,42.28
2023-03-02T06:26:10.064Z,44.53
2023-03-02T06:29:13.266Z,43.08
2023-03-02T06:32:15.647Z,54.13
2023-03-02T06:35:18.353Z,96.63
2023-03-02T06:38:20.470Z,85.97
2023-03-02T06:41:22.938Z,54.43
2023-03-02T06:44:25.394Z,45.08
2023-03-02T06:47:27.406Z,38.47
2023-03-02T06:50:29.492Z,45.03
2023-03-02T06:53:31.691Z,37.45
2023-03-02T06:56:34.466Z,69.97
2023-03-02T06:59:36.737Z,38.53
2023-03-02T07:02:40.504Z,38.55
2023-03-02T07:05:46.379Z,42.25
2023-03-02T07:08:48.739Z,44.92
2023-03-02T07:11:51.185Z,37.37
2023-03-02T07:14:53.462Z,33.15
2023-03-02T07:18:03.990Z,31.48
2023-03-02T07:21:06.304Z,25.63
2023-03-02T07:24:08.491Z,18.73
2023-03-02T07:27:10.509Z,17.13
2023-03-02T07:30:12.868Z,16.73
2023-03-02T07:33:14.938Z,15.65
2023-03-02T07:36:16.960Z,12.45
2023-03-02T07:39:19.158Z,12.30
2023-03-02T07:42:21.274Z,12.87
2023-03-02T07:45:27.114Z,13.35
2023-03-02T07:48:29.206Z,11.05
2023-03-02T07:51:32.152Z,10.10
2023-03-02T07:54:34.485Z,9.23
2023-03-02T07:57:36.613Z,8.98
2023-03-02T08:00:41.264Z,8.93
2023-03-02T08:03:45.009Z,8.48
2023-03-02T08:06:47.010Z,8.20
2023-03-02T08:09:49.212Z,8.43
2023-03-02T08:12:51.678Z,9.17
2023-03-02T08:15:59.256Z,12.60
2023-03-02T08:19:01.344Z,8.90
2023-03-02T08:22:03.952Z,6.97
2023-03-02T08:25:07.329Z,7.63
2023-03-02T08:28:09.412Z,6.00
2023-03-02T08:31:12.378Z,8.75
2023-03-02T08:34:14.506Z,8.68
2023-03-02T08:37:16.898Z,7.03
2023-03-02T08:40:19.027Z,7.10
2023-03-02T08:43:21.643Z,6.57
2023-03-02T08:46:24.248Z,9.18
2023-03-02T08:49:26.688Z,7.47
2023-03-02T08:52:28.860Z,132.43
2023-03-02T08:55:30.866Z,18.63
2023-03-02T08:58:33.150Z,9.23
2023-03-02T09:01:36.099Z,7.53
2023-03-02T09:04:39.333Z,7.17
2023-03-02T09:07:41.614Z,10.13
2023-03-02T09:10:44.752Z,10.13
2023-03-02T09:13:47.166Z,10.80
2023-03-02T09:16:49.487Z,24.10
2023-03-02T09:19:51.647Z,10.82
2023-03-02T09:22:53.968Z,35.17
2023-03-02T09:25:56.452Z,8.57
2023-03-02T09:28:58.615Z,11.07
2023-03-02T09:32:00.778Z,10.35
2023-03-02T09:35:02.961Z,11.05
2023-03-02T09:38:05.367Z,15.27
2023-03-02T09:41:12.841Z,10.67
2023-03-02T09:44:43.571Z,9.77
2023-03-02T09:48:12.088Z,46.45
2023-03-02T09:51:20.316Z,11.07
2023-03-02T09:54:24.310Z,9.57
2023-03-02T09:57:28.600Z,8.32
2023-03-02T10:00:39.891Z,12.43
2023-03-02T10:03:48.277Z,9.95
2023-03-02T10:06:53.046Z,14.57
2023-03-02T10:09:55.644Z,10.60
2023-03-02T10:13:04.098Z,10.93
2023-03-02T10:16:12.595Z,10.52
2023-03-02T10:19:20.529Z,12.35
2023-03-02T10:22:29.799Z,9.90
2023-03-02T10:25:38.145Z,12.97
2023-03-02T10:28:50.144Z,11.30
2023-03-02T10:32:15.630Z,11.90
2023-03-02T10:35:20.936Z,11.15
2023-03-02T10:38:23.694Z,11.25
2023-03-02T10:41:27.433Z,11.77
2023-03-02T10:44:33.261Z,10.27
2023-03-02T10:47:35.276Z,13.55
2023-03-02T10:50:37.882Z,13.38
2023-03-02T10:53:40.087Z,13.07
2023-03-02T10:56:42.516Z,11.40
2023-03-02T10:59:45.313Z,10.10
2023-03-02T11:02:50.486Z,9.55
2023-03-02T11:05:52.700Z,11.77
2023-03-02T11:08:58.990Z,8.57
2023-03-02T11:12:01.545Z,10.17
2023-03-02T11:15:24.425Z,11.43
2023-03-02T11:18:26.944Z,8.82
2023-03-02T11:21:39.584Z,8.48
2023-03-02T11:24:42.908Z,10.30
2023-03-02T11:27:45.040Z,8.47
2023-03-02T11:30:48.182Z,12.13
2023-03-02T11:34:17.600Z,8.95
2023-03-02T11:37:23.405Z,8.23
2023-03-02T11:40:32.057Z,7.90
2023-03-02T11:43:34.718Z,9.73
2023-03-02T11:46:37.115Z,8.27
2023-03-02T11:49:43.419Z,11.68
2023-03-02T11:52:50.718Z,9.63
2023-03-02T11:55:53.400Z,11.65
2023-03-02T11:58:56.924Z,11.13
2023-03-02T12:02:00.797Z,8.73
2023-03-02T12:05:04.495Z,10.25
2023-03-02T12:08:08.263Z,9.70
2023-03-02T12:11:16.784Z,9.60
2023-03-02T12:14:28.659Z,8.53
2023-03-02T12:17:32.488Z,8.50
2023-03-02T12:20:35.073Z,9.88
2023-03-02T12:23:50.024Z,10.75
2023-03-02T12:27:08.080Z,11.25
2023-03-02T12:30:25.166Z,23.47
2023-03-02T12:33:27.634Z,9.43
2023-03-02T12:36:31.929Z,9.93
2023-03-02T12:39:53.776Z,9.63
2023-03-02T12:43:02.176Z,10.30
2023-03-02T12:46:10.804Z,11.57
2023-03-02T12:49:35.474Z,8.07
2023-03-02T12:52:37.742Z,30.95
2023-03-02T12:55:41.230Z,11.88
2023-03-02T12:58:48.553Z,12.40
2023-03-02T13:01:50.608Z,12.00
2023-03-02T13:04:56.429Z,10.07
2023-03-02T13:08:02.857Z,19.33
2023-03-02T13:11:07.408Z,9.05
2023-03-02T13:14:28.078Z,20.27
2023-03-02T13:17:31.561Z,10.57
2023-03-02T13:20:33.699Z,7.10
2023-03-02T13:23:35.789Z,9.60
2023-03-02T13:26:39.912Z,7.03
2023-03-02T13:29:42.066Z,9.57
2023-03-02T13:32:44.140Z,8.27
2023-03-02T13:35:46.683Z,10.98
2023-03-02T13:38:49.501Z,8.63
2023-03-02T13:41:52.686Z,10.20
2023-03-02T13:44:55.168Z,6.03
2023-03-02T13:47:58.611Z,10.33
2023-03-02T13:51:16.915Z,36.63
2023-03-02T13:54:22.821Z,14.52
2023-03-02T13:57:30.792Z,7.25
2023-03-02T14:00:33.568Z,10.35
2023-03-02T14:03:36.012Z,8.03
2023-03-02T14:06:38.737Z,10.80
2023-03-02T14:09:41.180Z,6.63
2023-03-02T14:12:46.699Z,7.18
2023-03-02T14:15:50.371Z,7.18
2023-03-02T14:18:53.090Z,8.87
2023-03-02T14:21:55.232Z,5.93
2023-03-02T14:24:58.070Z,7.65
2023-03-02T14:28:00.651Z,10.95
2023-03-02T14:31:03.314Z,8.48
2023-03-02T14:34:06.053Z,7.90
2023-03-02T14:37:12.542Z,6.70
2023-03-02T14:40:28.166Z,7.70
2023-03-02T14:43:30.903Z,8.07
2023-03-02T14:46:33.360Z,9.88
2023-03-02T14:49:38.706Z,7.20
2023-03-02T14:52:41.898Z,5.85
2023-03-02T14:55:44.013Z,6.75
2023-03-02T14:58:46.645Z,6.85
2023-03-02T15:01:49.038Z,15.13
2023-03-02T15:04:56.064Z,7.23
2023-03-02T15:07:59.038Z,8.00
2023-03-02T15:11:01.065Z,7.82
2023-03-02T15:14:03.190Z,7.47
2023-03-02T15:17:05.717Z,8.93
2023-03-02T15:20:08.809Z,7.90
2023-03-02T15:23:11.212Z,7.50
2023-03-02T15:26:14.103Z,8.00
2023-03-02T15:29:16.780Z,8.23
2023-03-02T15:32:19.006Z,9.95
2023-03-02T15:35:21.530Z,8.43
2023-03-02T15:38:23.620Z,8.38
2023-03-02T15:41:26.066Z,9.75
2023-03-02T15:44:29.730Z,11.20
2023-03-02T15:47:33.589Z,8.45
2023-03-02T15:50:36.056Z,8.53
2023-03-02T15:53:38.735Z,9.73
2023-03-02T15:56:44.230Z,14.23
2023-03-02T15:59:46.887Z,9.80
2023-03-02T16:02:49.725Z,9.95
2023-03-02T16:05:51.884Z,9.87
2023-03-02T16:08:54.516Z,13.63
2023-03-02T16:11:56.881Z,20.08
2023-03-02T16:14:59.106Z,21.10
2023-03-02T16:18:07.708Z,17.83
2023-03-02T16:21:13.355Z,20.40
2023-03-02T16:24:17.234Z,75.80
2023-03-02T16:27:19.556Z,30.25
2023-03-02T16:30:23.709Z,19.35
2023-03-02T16:33:30.117Z,14.75
2023-03-02T16:36:32.477Z,19.57
2023-03-02T16:39:35.041Z,15.02
2023-03-02T16:42:37.591Z,54.92
2023-03-02T16:45:39.982Z,52.42
2023-03-02T16:48:42.257Z,34.83
2023-03-02T16:51:44.492Z,66.73
2023-03-02T16:54:46.643Z,66.22
2023-03-02T16:57:48.856Z,52.95
2023-03-02T17:00:51.842Z,23.83
2023-03-02T17:03:54.532Z,23.90
2023-03-02T17:07:01.058Z,21.67
2023-03-02T17:10:03.756Z,22.88
2023-03-02T17:13:06.216Z,21.77
2023-03-02T17:16:09.380Z,20.20
2023-03-02T17:19:17.825Z,24.63
2023-03-02T17:22:19.925Z,28.90
2023-03-02T17:25:22.514Z,30.90
2023-03-02T17:28:24.626Z,32.77
2023-03-02T17:31:26.766Z,40.28
2023-03-02T17:34:31.280Z,36.72
2023-03-02T17:37:33.440Z,39.00
2023-03-02T17:40:35.827Z,48.40
2023-03-02T17:43:40.537Z,45.90
2023-03-02T17:46:43.125Z,43.47
2023-03-02T17:49:48.163Z,43.50
2023-03-02T17:52:50.672Z,45.78
2023-03-02T17:55:53.208Z,45.28
2023-03-02T17:58:56.157Z,44.05
2023-03-02T18:01:58.747Z,41.38
2023-03-02T18:05:01.177Z,38.35
2023-03-02T18:08:03.233Z,44.45
2023-03-02T18:11:05.566Z,46.13
2023-03-02T18:14:08.070Z,44.95
2023-03-02T18:17:10.751Z,39.83
2023-03-02T18:20:14.040Z,38.47
2023-03-02T18:23:16.366Z,45.65
2023-03-02T18:26:18.835Z,40.55
2023-03-02T18:29:22.574Z,36.05
2023-03-02T18:32:24.714Z,41.25
2023-03-02T18:35:26.754Z,51.63
2023-03-02T18:38:31.062Z,48.30
2023-03-02T18:41:33.189Z,49.13
2023-03-02T18:44:35.169Z,56.05
2023-03-02T18:47:37.653Z,64.38
2023-03-02T18:50:39.727Z,55.87
2023-03-02T18:53:43.196Z,55.38
2023-03-02T18:56:45.326Z,48.53
2023-03-02T18:59:47.580Z,52.47
2023-03-02T19:02:49.542Z,47.65
2023-03-02T19:05:53.263Z,44.35
2023-03-02T19:08:55.692Z,44.47
2023-03-02T19:11:57.707Z,51.27
2023-03-02T19:14:59.666Z,51.17
2023-03-02T19:18:01.679Z,57.72
2023-03-02T19:21:04.931Z,58.30
2023-03-02T19:24:07.140Z,58.53
2023-03-02T19:27:11.520Z,57.55
2023-03-02T19:30:15.873Z,56.50
2023-03-02T19:33:17.831Z,59.42
2023-03-02T19:36:20.258Z,53.58
2023-03-02T19:39:22.602Z,63.72
2023-03-02T19:42:25.034Z,68.87
2023-03-02T19:45:29.150Z,81.97
2023-03-02T19:48:31.691Z,70.97
2023-03-02T19:51:33.807Z,72.40
2023-03-02T19:54:35.836Z,63.72
2023-03-02T19:57:39.722Z,64.93
2023-03-02T20:00:41.699Z,62.08
2023-03-02T20:03:44.154Z,60.53
2023-03-02T20:06:46.627Z,67.15
2023-03-02T20:09:48.635Z,62.67
2023-03-02T20:12:51.117Z,63.23
2023-03-02T20:15:53.726Z,63.25
2023-03-02T20:18:58.002Z,64.43
2023-03-02T20:22:02.912Z,71.73
2023-03-02T20:25:05.037Z,64.00
2023-03-02T20:28:07.403Z,66.97
2023-03-02T20:31:11.906Z,78.70
2023-03-02T20:34:16.612Z,76.07
2023-03-02T20:37:18.636Z,90.55
2023-03-02T20:40:21.603Z,92.00
2023-03-02T20:43:23.694Z,107.90
2023-03-02T20:46:28.349Z,104.95
2023-03-02T20:49:30.462Z,100.07
2023-03-02T20:52:32.670Z,95.07
2023-03-02T20:55:35.499Z,89.40
2023-03-02T20:58:41.233Z,105.68
2023-03-02T21:01:43.324Z,104.13
2023-03-02T21:04:46.227Z,104.32
2023-03-02T21:07:48.385Z,96.72
2023-03-02T21:10:50.632Z,91.53
2023-03-02T21:13:52.753Z,93.10
2023-03-02T21:16:54.869Z,84.03
2023-03-02T21:19:57.228Z,88.45
2023-03-02T21:23:02.440Z,77.93
2023-03-02T21:26:04.862Z,78.72
2023-03-02T21:29:06.841Z,83.47
2023-03-02T21:32:09.638Z,83.25
2023-03-02T21:35:15.593Z,81.70
2023-03-02T21:38:18.077Z,86.13
2023-03-02T21:41:20.692Z,84.57
2023-03-02T21:44:23.228Z,85.07
2023-03-02T21:47:25.537Z,79.93
2023-03-02T21:50:28.292Z,73.95
2023-03-02T21:53:30.823Z,77.23
2023-03-02T21:56:32.929Z,77.85
2023-03-02T21:59:37.453Z,77.50
2023-03-02T22:02:39.386Z,82.20
2023-03-02T22:05:41.399Z,73.97
2023-03-02T22:08:43.988Z,80.97
2023-03-02T22:11:53.019Z,85.03
2023-03-02T22:14:55.211Z,80.70
2023-03-02T22:17:57.265Z,83.82
2023-03-02T22:20:59.343Z,84.75
2023-03-02T22:24:13.358Z,84.57
2023-03-02T22:27:21.438Z,94.78
2023-03-02T22:30:23.591Z,80.97
2023-03-02T22:33:29.677Z,88.75
2023-03-02T22:36:31.651Z,78.80
2023-03-02T22:39:34.215Z,72.15
2023-03-02T22:42:36.135Z,72.18
2023-03-02T22:45:39.644Z,73.67
2023-03-02T22:48:42.711Z,73.45
2023-03-02T22:51:45.115Z,66.85
2023-03-02T22:54:47.106Z,68.73
2023-03-02T22:57:49.228Z,63.40
2023-03-02T23:00:51.374Z,71.70
2023-03-02T23:03:54.485Z,63.92
2023-03-02T23:06:57.620Z,68.90
2023-03-02T23:09:59.644Z,60.22
2023-03-02T23:13:01.955Z,59.78
2023-03-02T23:16:11.233Z,61.67
2023-03-02T23:19:13.419Z,59.88
2023-03-02T23:22:16.000Z,62.70
2023-03-02T23:25:18.177Z,60.10
2023-03-02T23:28:20.526Z,60.90
2023-03-02T23:31:22.509Z,65.93
2023-03-02T23:34:24.671Z,62.35
2023-03-02T23:37:26.980Z,63.50
2023-03-02T23:40:29.030Z,64.22
2023-03-02T23:43:31.081Z,61.70
2023-03-02T23:46:33.330Z,77.03
2023-03-02T23:49:35.464Z,66.18
2023-03-02T23:52:40.692Z,68.63
2023-03-02T23:55:47.584Z,71.17
2023-03-02T23:58:49.616Z,63.55
